KSTJ/STJ METAR and TAF weather

Enter ICAO airport designator
Station Type Date Time Source
KSTJ METAR 2020/08/10 18:53 UTC NOAA

KSTJ 101853Z 36003KT 10SM FEW110 24/19 A2996 RMK AO2 WSHFT 1748 RAE10 SLP138 P0000 T02390194


Station Type Date Time Source
KSTJ Decoded METAR 2020/08/10 18:53 UTC NOAA

ROSECRANS MEMORIAL AIRPORT, MO, United States (KSTJ) 39-46N 94-55W 247M
Aug 10, 2020 - 02:53 PM EDT / 2020.08.10 1853 UTC
Wind: from the N (360 degrees) at 3 MPH (3 KT):0
Visibility: 10 mile(s):0
Sky conditions: mostly clear
Precipitation last hour: A trace
Temperature: 75.0 F (23.9 C)
Dew Point: 66.9 F (19.4 C)
Relative Humidity: 75%
Pressure (altimeter): 29.96 in. Hg (1014 hPa)
ob: KSTJ 101853Z 36003KT 10SM FEW110 24/19 A2996 RMK AO2 WSHFT 1748 RAE10 SLP138 P0000 T02390194
cycle: 19

Station Type Date Time Source
KSTJ TAF 2020/08/10 18:30 UTC NOAA

TAF KSTJ 101726Z 1018/1118 24012G22KT P6SM -TSRA SCT030CB BKN070
FM101900 35012G18KT P6SM VCTS SCT040CB BKN100
FM102200 08008KT P6SM VCSH SCT040 BKN100
FM110600 10009KT P6SM BKN250

Example: see airport list